Time;durP1;ratioP1;P1;durP2;ratioP2;P2;SDS_P1;SDS_P2;PMS_P1;PMS_P2;Temp;Humidity;BMP_temperature;BMP_pressure;BME280_temperature;BME280_humidity;BME280_pressure;Samples;Min_cycle;Max_cycle;Signal;HPM_P1;HPM_P2
2021/12/07 00:19:30;;;;;;;27.52;14.50;;;;;;;1.00;100.00;99039.09;4995419;28;20041;-76
2021/12/07 00:21:55;;;;;;;25.10;13.32;;;;;;;1.00;100.00;99042.59;4995286;28;20030;-76
2021/12/07 00:24:21;;;;;;;25.17;13.70;;;;;;;0.93;100.00;99037.44;4994049;28;20026;-76
2021/12/07 00:26:46;;;;;;;25.77;14.60;;;;;;;0.91;100.00;99032.16;4995211;28;20050;-76
2021/12/07 00:29:13;;;;;;;21.45;12.82;;;;;;;0.98;100.00;99033.84;4995087;28;20042;-77
2021/12/07 00:32:06;;;;;;;24.15;13.70;;;;;;;0.86;100.00;99036.59;4995077;28;20100;-77
2021/12/07 00:36:57;;;;;;;25.55;14.02;;;;;;;0.84;100.00;99031.38;4995224;28;20489;-77
2021/12/07 00:39:24;;;;;;;24.30;14.32;;;;;;;0.81;100.00;99027.88;4994894;28;20125;-76
2021/12/07 00:41:52;;;;;;;23.52;13.35;;;;;;;0.88;100.00;99025.19;4994971;28;20026;-77
2021/12/07 00:44:19;;;;;;;22.92;13.18;;;;;;;0.78;100.00;99026.16;4994887;28;20029;-76
2021/12/07 00:46:45;;;;;;;22.20;13.18;;;;;;;0.76;100.00;99020.94;4994896;28;20493;-76
2021/12/07 00:49:11;;;;;;;23.45;13.05;;;;;;;0.82;100.00;99017.38;4994780;28;20030;-76
2021/12/07 00:51:36;;;;;;;21.38;12.57;;;;;;;0.75;100.00;99019.19;4993547;28;20129;-76
2021/12/07 00:54:03;;;;;;;28.55;13.25;;;;;;;0.73;100.00;99023.59;4994746;28;20542;-77
2021/12/07 00:56:29;;;;;;;24.27;13.25;;;;;;;0.76;100.00;99020.06;4994529;28;20387;-77
2021/12/07 00:58:54;;;;;;;23.63;12.88;;;;;;;0.80;100.00;99028.78;4993289;28;20026;-77
2021/12/07 01:01:20;;;;;;;23.98;12.85;;;;;;;0.70;100.00;99028.00;4994629;28;20022;-77
2021/12/07 01:03:48;;;;;;;24.20;13.52;;;;;;;0.72;100.00;99028.88;4993177;28;20022;-76
2021/12/07 01:06:25;;;;;;;22.65;12.77;;;;;;;0.72;100.00;99034.97;4993254;28;20031;-76
2021/12/07 01:25:05;;;;;;;;;;;;;;;0.85;100.00;99038.34;4995185;28;20611;-76
2021/12/07 01:27:30;;;;;;;16.85;9.20;;;;;;;0.82;100.00;99038.41;4994612;28;19922;-77
2021/12/07 01:47:59;;;;;;;21.77;11.65;;;;;;;0.31;100.00;99045.84;4993840;28;20030;-77
2021/12/07 01:57:49;;;;;;;22.25;12.20;;;;;;;0.33;100.00;99053.72;4993893;28;20045;-77
2021/12/07 02:01:30;;;;;;;22.95;12.02;;;;;;;0.25;100.00;99039.78;4994324;28;20033;-76
2021/12/07 02:03:56;;;;;;;23.05;12.10;;;;;;;0.25;100.00;99045.03;4993687;28;20039;-77
2021/12/07 02:06:21;;;;;;;24.10;12.68;;;;;;;0.26;100.00;99046.78;4995023;28;20033;-77
2021/12/07 02:08:47;;;;;;;23.77;12.73;;;;;;;0.17;100.00;99045.09;4997957;28;20026;-77
2021/12/07 02:11:12;;;;;;;26.77;14.02;;;;;;;0.16;100.00;99045.97;4996437;28;20034;-77
2021/12/07 02:16:03;;;;;;;26.30;13.63;;;;;;;0.12;100.00;99046.88;4997828;28;20519;-77
2021/12/07 02:18:29;;;;;;;28.20;12.68;;;;;;;0.09;100.00;99051.28;4996225;28;20026;-77
2021/12/07 02:20:54;;;;;;;26.10;13.63;;;;;;;0.09;100.00;99059.16;4997530;28;20022;-77
2021/12/07 02:23:19;;;;;;;26.35;13.95;;;;;;;0.12;100.00;99054.75;4997489;28;20038;-77
2021/12/07 02:25:46;;;;;;;25.02;13.30;;;;;;;0.13;100.00;99053.88;4997677;28;20022;-77
2021/12/07 02:28:14;;;;;;;24.60;12.73;;;;;;;0.15;100.00;99060.00;4997531;28;20077;-77
2021/12/07 02:30:42;;;;;;;26.20;13.20;;;;;;;0.06;100.00;99056.53;4997622;28;20022;-77
2021/12/07 02:33:09;;;;;;;24.60;12.60;;;;;;;0.04;100.00;99052.19;4997284;28;20035;-77
2021/12/07 02:35:35;;;;;;;24.63;12.43;;;;;;;0.04;100.00;99053.06;4997230;28;20019;-76
2021/12/07 02:38:00;;;;;;;22.95;12.20;;;;;;;0.03;100.00;99050.41;4997139;28;20403;-77
2021/12/07 02:40:25;;;;;;;23.52;12.43;;;;;;;0.10;100.00;99053.00;4997400;28;20121;-76
2021/12/07 02:42:52;;;;;;;27.88;13.35;;;;;;;0.07;100.00;99058.28;4997380;28;20077;-76
2021/12/07 02:45:20;;;;;;;22.90;11.40;;;;;;;0.04;100.00;99053.06;4995865;28;20049;-77
2021/12/07 02:47:46;;;;;;;23.83;12.00;;;;;;;0.10;100.00;99055.63;4996064;28;20077;-76
2021/12/07 02:50:13;;;;;;;22.02;12.45;;;;;;;0.08;100.00;99067.00;4995819;28;20034;-76
2021/12/07 02:52:38;;;;;;;22.02;12.27;;;;;;;0.03;100.00;99066.16;4997225;28;20029;-77
2021/12/07 02:55:05;;;;;;;22.00;11.80;;;;;;;0.01;100.00;99065.31;4997150;28;20026;-76
2021/12/07 02:57:33;;;;;;;23.77;13.23;;;;;;;0.02;100.00;99064.44;4996890;28;20026;-76
2021/12/07 03:00:05;;;;;;;22.23;11.93;;;;;;;0.09;100.00;99067.03;4995618;28;20037;-77
2021/12/07 03:02:36;;;;;;;23.00;12.73;;;;;;;0.05;100.00;99072.31;4996710;28;20054;-77
2021/12/07 03:05:09;;;;;;;23.08;13.10;;;;;;;0.01;100.00;99074.06;4996835;28;20034;-77
2021/12/07 03:26:26;;;;;;;24.15;12.90;;;;;;;0.04;100.00;99087.19;4996700;28;20034;-77
2021/12/07 03:28:54;;;;;;;22.75;13.05;;;;;;;0.01;100.00;99089.81;4996248;28;20026;-77
2021/12/07 03:31:20;;;;;;;27.60;12.90;;;;;;;-0.02;100.00;99088.09;4996247;28;20018;-77
2021/12/07 03:33:45;;;;;;;25.45;13.50;;;;;;;-0.01;100.00;99088.97;4996176;28;20037;-77
2021/12/07 03:36:12;;;;;;;24.88;13.50;;;;;;;-0.03;100.00;99088.97;4996092;28;20022;-77
2021/12/07 03:38:39;;;;;;;25.98;13.10;;;;;;;0.03;100.00;99097.66;4996032;28;20027;-77
2021/12/07 03:41:05;;;;;;;24.70;12.95;;;;;;;-0.02;100.00;99101.22;4996144;28;20026;-77
2021/12/07 03:43:31;;;;;;;25.13;12.80;;;;;;;0.03;100.00;99103.78;4994830;28;20026;-77
2021/12/07 03:45:57;;;;;;;26.90;12.88;;;;;;;0.02;100.00;99094.19;4996309;28;20025;-77
2021/12/07 03:48:22;;;;;;;24.73;13.15;;;;;;;0.05;100.00;99101.19;4995961;28;20034;-77
2021/12/07 03:50:47;;;;;;;24.45;12.95;;;;;;;0.06;100.00;99101.16;4996148;28;20034;-77
2021/12/07 03:53:13;;;;;;;21.50;12.23;;;;;;;0.10;100.00;99108.13;4994578;28;20061;-77
2021/12/07 03:55:39;;;;;;;24.15;12.95;;;;;;;0.15;100.00;99107.25;4995988;28;20097;-77
2021/12/07 03:58:05;;;;;;;20.63;11.90;;;;;;;0.10;100.00;99113.38;4995696;28;20077;-77
2021/12/07 04:00:34;;;;;;;24.25;12.90;;;;;;;0.08;100.00;99109.88;4995724;28;20033;-77
2021/12/07 04:03:03;;;;;;;24.40;12.60;;;;;;;0.07;100.00;99121.28;4995935;28;20033;-76
2021/12/07 04:05:29;;;;;;;26.33;13.85;;;;;;;0.09;100.00;99119.53;4995815;28;20018;-77
2021/12/07 04:07:54;;;;;;;28.02;14.25;;;;;;;0.13;100.00;99127.38;4994257;28;20395;-77
2021/12/07 04:10:22;;;;;;;28.88;14.45;;;;;;;0.15;100.00;99128.25;4994274;28;20057;-77
2021/12/07 04:12:48;;;;;;;24.95;13.85;;;;;;;0.18;100.00;99134.34;4995739;28;20109;-77
2021/12/07 04:15:16;;;;;;;26.05;13.27;;;;;;;0.18;100.00;99136.09;4995640;28;20109;-77
2021/12/07 04:17:42;;;;;;;29.58;14.77;;;;;;;0.17;100.00;99143.09;4995308;28;20041;-77
2021/12/07 04:20:10;;;;;;;26.65;13.95;;;;;;;0.25;100.00;99140.44;4995546;28;20396;-77
2021/12/07 04:22:36;;;;;;;26.60;14.32;;;;;;;0.22;100.00;99136.06;4995530;28;20028;-77
2021/12/07 04:25:04;;;;;;;26.98;13.57;;;;;;;0.22;100.00;99143.06;4995530;28;20022;-77
2021/12/07 04:27:34;;;;;;;25.95;14.07;;;;;;;0.24;100.00;99143.94;4996224;28;20027;-77
2021/12/07 04:29:59;;;;;;;25.33;12.85;;;;;;;0.26;100.00;99151.81;4999715;28;20373;-77
2021/12/07 04:32:25;;;;;;;25.98;13.05;;;;;;;0.29;100.00;99142.16;4994082;28;20025;-77
2021/12/07 04:34:50;;;;;;;24.23;13.82;;;;;;;0.33;100.00;99149.16;4995629;28;20124;-77
2021/12/07 04:37:15;;;;;;;24.42;13.35;;;;;;;0.32;100.00;99157.91;4994211;28;20031;-77
2021/12/07 04:39:41;;;;;;;26.40;13.30;;;;;;;0.38;100.00;99166.63;4993984;28;20061;-77
2021/12/07 04:42:06;;;;;;;26.63;13.45;;;;;;;0.37;100.00;99164.84;4994056;28;20026;-77
2021/12/07 04:44:37;;;;;;;26.60;13.88;;;;;;;0.37;100.00;99172.75;4993995;28;20029;-77
2021/12/07 04:47:17;;;;;;;28.45;14.23;;;;;;;0.35;100.00;99164.00;4994936;28;20077;-76
2021/12/07 04:50:03;;;;;;;26.85;13.70;;;;;;;0.33;100.00;99170.16;4993525;28;20034;-76
2021/12/07 04:57:57;;;;;;;27.95;14.27;;;;;;;0.33;100.00;99159.66;4995083;28;19920;-76
2021/12/07 05:00:26;;;;;;;26.10;13.73;;;;;;;0.31;100.00;99166.63;4994937;28;20030;-76
2021/12/07 05:03:03;;;;;;;31.27;15.38;;;;;;;0.33;100.00;99172.78;4994421;28;20054;-76
2021/12/07 05:05:34;;;;;;;31.38;18.05;;;;;;;0.33;100.00;99175.41;4993229;28;20502;-76
2021/12/07 05:08:03;;;;;;;28.15;16.13;;;;;;;0.42;100.00;99194.59;4994678;28;20025;-76
2021/12/07 05:10:36;;;;;;;25.00;15.48;;;;;;;0.46;100.00;99190.22;4994422;28;20022;-76
2021/12/07 05:39:54;;;;;;;25.85;14.48;;;;;;;0.43;100.00;99222.63;4993557;28;20450;-77
2021/12/07 05:42:22;;;;;;;26.98;15.65;;;;;;;0.39;100.00;99226.13;4993906;28;20053;-77
2021/12/07 05:44:48;;;;;;;27.55;15.43;;;;;;;0.43;100.00;99222.63;4993925;28;20480;-77
2021/12/07 05:47:14;;;;;;;29.90;15.45;;;;;;;0.48;100.00;99235.72;4994182;28;20032;-77
2021/12/07 05:49:39;;;;;;;27.20;14.85;;;;;;;0.43;100.00;99234.00;4994221;28;20499;-78
2021/12/07 05:52:04;;;;;;;26.13;15.10;;;;;;;0.61;100.00;99244.41;4992618;28;20053;-77
2021/12/07 05:54:30;;;;;;;24.33;14.00;;;;;;;0.43;100.00;99243.63;4993991;28;20117;-77
2021/12/07 05:56:55;;;;;;;28.38;15.30;;;;;;;0.46;100.00;99246.25;4993759;28;20071;-77
2021/12/07 05:59:21;;;;;;;28.90;15.20;;;;;;;0.44;100.00;99251.50;4993814;28;20026;-77
2021/12/07 06:01:46;;;;;;;29.00;15.60;;;;;;;0.35;100.00;99250.66;4993704;28;20081;-77
2021/12/07 06:04:12;;;;;;;27.65;15.50;;;;;;;0.33;100.00;99259.44;4993589;28;20049;-77
2021/12/07 06:06:38;;;;;;;28.05;15.57;;;;;;;0.39;100.00;99258.53;4993706;28;20033;-77
2021/12/07 06:09:04;;;;;;;28.65;15.57;;;;;;;0.42;100.00;99262.88;4993486;28;20061;-77
2021/12/07 06:11:29;;;;;;;27.60;15.55;;;;;;;0.42;100.00;99257.63;4992282;28;20053;-77
2021/12/07 06:13:54;;;;;;;29.55;15.07;;;;;;;0.36;100.00;99268.19;4993654;28;20049;-77
2021/12/07 06:16:20;;;;;;;28.67;15.70;;;;;;;0.36;100.00;99266.41;4993749;28;20022;-77
2021/12/07 06:18:45;;;;;;;26.80;14.55;;;;;;;0.42;100.00;99268.13;4993435;28;20118;-78
2021/12/07 06:21:12;;;;;;;31.33;15.88;;;;;;;0.36;100.00;99273.44;4993768;28;20065;-78
2021/12/07 06:23:38;;;;;;;29.17;15.43;;;;;;;0.37;100.00;99275.16;4993616;28;20030;-77
2021/12/07 06:26:03;;;;;;;27.13;14.75;;;;;;;0.36;100.00;99279.53;4993710;28;20018;-77
2021/12/07 06:28:29;;;;;;;26.90;14.73;;;;;;;0.34;100.00;99281.31;4993599;28;20395;-77
2021/12/07 06:30:56;;;;;;;27.10;14.38;;;;;;;0.50;100.00;99291.75;4994004;28;20030;-77
2021/12/07 06:33:23;;;;;;;29.23;15.10;;;;;;;0.48;100.00;99285.63;4993431;28;20092;-77
2021/12/07 06:35:56;;;;;;;26.90;14.93;;;;;;;0.54;100.00;99298.75;4993938;28;20023;-77
2021/12/07 06:38:22;;;;;;;29.60;15.43;;;;;;;0.44;100.00;99303.16;4992217;28;20034;-77
2021/12/07 06:40:48;;;;;;;29.30;14.90;;;;;;;0.53;100.00;99303.13;4993349;28;20106;-77
2021/12/07 06:43:13;;;;;;;30.02;16.27;;;;;;;0.50;100.00;99313.63;4993370;28;20117;-77
2021/12/07 06:45:38;;;;;;;31.60;15.77;;;;;;;0.57;100.00;99319.72;4993350;28;20487;-77
2021/12/07 06:48:04;;;;;;;30.95;15.90;;;;;;;0.58;100.00;99333.75;4993476;28;20391;-78
2021/12/07 06:50:29;;;;;;;29.48;15.52;;;;;;;0.64;100.00;99324.09;4992166;28;20038;-77
2021/12/07 06:52:55;;;;;;;31.42;16.40;;;;;;;0.68;100.00;99331.94;4996609;28;20376;-77
2021/12/07 06:55:21;;;;;;;32.75;17.20;;;;;;;0.58;100.00;99331.13;4996944;28;20395;-77
2021/12/07 06:57:47;;;;;;;34.38;16.77;;;;;;;0.64;100.00;99336.38;4997081;28;20038;-77
2021/12/07 07:00:12;;;;;;;30.75;15.95;;;;;;;0.46;100.00;99335.56;5001732;28;20027;-78
2021/12/07 07:05:21;;;;;;;36.63;17.65;;;;;;;0.44;100.00;99345.19;5017906;28;20499;-84
2021/12/07 07:08:02;;;;;;;42.35;19.00;;;;;;;0.40;100.00;99346.06;5030084;28;20049;-83
2021/12/07 07:10:32;;;;;;;38.28;18.38;;;;;;;0.44;100.00;99353.06;5037807;28;20113;-84
2021/12/07 07:13:12;;;;;;;38.08;18.10;;;;;;;0.40;100.00;99349.59;5036058;28;20030;-85
2021/12/07 07:15:55;;;;;;;42.55;18.85;;;;;;;0.35;100.00;99363.59;5032548;28;20049;-84
2021/12/07 07:18:34;;;;;;;42.30;19.08;;;;;;;0.47;100.00;99366.19;5032769;28;20034;-85
2021/12/07 07:21:21;;;;;;;44.42;19.98;;;;;;;0.48;100.00;99385.47;5031161;28;20026;-85
2021/12/07 07:23:58;;;;;;;44.70;19.35;;;;;;;0.45;100.00;99386.34;5018749;28;20478;-83
2021/12/07 07:26:29;;;;;;;44.28;19.55;;;;;;;0.47;100.00;99375.81;5017099;28;20038;-83
2021/12/07 07:29:08;;;;;;;48.63;21.35;;;;;;;0.50;100.00;99392.44;5019241;28;20022;-84
2021/12/07 07:31:36;;;;;;;43.75;20.20;;;;;;;0.46;100.00;99390.72;5021584;28;20026;-83
2021/12/07 07:34:02;;;;;;;44.95;20.13;;;;;;;0.55;100.00;99398.56;5021298;28;20018;-84
2021/12/07 07:36:27;;;;;;;49.78;20.98;;;;;;;0.44;100.00;99398.59;5022074;28;20045;-85
2021/12/07 07:38:52;;;;;;;46.65;21.15;;;;;;;0.46;100.00;99388.09;5022748;28;20033;-83
2021/12/07 07:41:18;;;;;;;47.63;20.38;;;;;;;0.52;100.00;99398.56;5022476;28;20121;-85
2021/12/07 07:43:43;;;;;;;48.35;21.52;;;;;;;0.48;100.00;99399.47;5021071;28;20022;-84
2021/12/07 07:46:08;;;;;;;47.88;20.67;;;;;;;0.54;100.00;99404.69;5023771;28;20030;-84
2021/12/07 07:48:34;;;;;;;48.90;21.48;;;;;;;0.53;100.00;99399.44;5022087;28;20037;-84
2021/12/07 07:50:59;;;;;;;50.33;22.67;;;;;;;0.52;100.00;99401.19;5021993;28;20047;-83
2021/12/07 07:53:24;;;;;;;50.20;22.67;;;;;;;0.55;100.00;99398.56;5022000;28;20026;-84
2021/12/07 07:55:51;;;;;;;55.33;22.25;;;;;;;0.51;100.00;99398.59;5021373;28;20042;-84
2021/12/07 07:58:18;;;;;;;47.20;22.40;;;;;;;0.55;100.00;99406.44;5021880;28;20026;-84
2021/12/07 08:00:44;;;;;;;53.13;22.05;;;;;;;0.61;100.00;99394.16;5016862;28;20455;-84
2021/12/07 08:03:09;;;;;;;47.85;22.15;;;;;;;0.60;100.00;99395.03;5016817;28;20577;-84
2021/12/07 08:05:35;;;;;;;53.70;22.63;;;;;;;0.61;100.00;99391.53;5019132;28;20548;-84
2021/12/07 08:08:00;;;;;;;51.35;22.33;;;;;;;0.57;100.00;99393.28;5019196;28;20022;-84
2021/12/07 08:10:30;;;;;;;57.08;22.63;;;;;;;0.54;100.00;99398.59;5019149;28;20110;-84
2021/12/07 08:12:57;;;;;;;59.58;24.35;;;;;;;0.61;100.00;99400.31;5021622;28;20113;-84
2021/12/07 08:15:27;;;;;;;55.50;22.88;;;;;;;0.61;100.00;99407.31;5020050;28;20014;-84
2021/12/07 08:17:54;;;;;;;59.08;22.70;;;;;;;0.60;100.00;99398.53;5021195;28;20026;-83
2021/12/07 08:20:19;;;;;;;58.67;24.13;;;;;;;0.56;100.00;99425.72;5022454;28;20022;-84
2021/12/07 08:22:45;;;;;;;54.53;21.88;;;;;;;0.73;100.00;99425.66;5027141;28;20040;-84
2021/12/07 08:25:10;;;;;;;52.45;21.35;;;;;;;0.68;100.00;99422.16;5025299;28;20082;-83
2021/12/07 08:27:36;;;;;;;60.88;26.08;;;;;;;0.64;100.00;99433.59;5024903;28;20022;-83
2021/12/07 08:30:05;;;;;;;57.13;22.70;;;;;;;0.79;100.00;99430.03;5023991;28;20033;-84
2021/12/07 08:32:31;;;;;;;53.92;23.25;;;;;;;0.71;100.00;99427.44;5025629;28;20041;-84
2021/12/07 08:34:56;;;;;;;53.05;21.75;;;;;;;0.75;100.00;99430.91;5025298;28;20030;-83
2021/12/07 08:37:21;;;;;;;50.42;21.38;;;;;;;0.78;100.00;99421.25;5016118;28;20022;-84
2021/12/07 08:39:47;;;;;;;55.17;21.25;;;;;;;0.85;100.00;99423.88;5017856;28;20029;-84
2021/12/07 08:42:12;;;;;;;51.30;21.45;;;;;;;0.93;100.00;99429.97;5020705;28;20116;-84
2021/12/07 08:44:38;;;;;;;53.90;21.63;;;;;;;0.86;100.00;99426.50;5020590;28;20018;-84
2021/12/07 08:47:03;;;;;;;50.65;20.58;;;;;;;0.83;100.00;99428.25;5021400;28;20017;-85
2021/12/07 08:49:28;;;;;;;50.20;20.60;;;;;;;0.86;100.00;99433.50;5023700;28;20037;-84
2021/12/07 08:51:54;;;;;;;51.90;21.73;;;;;;;0.91;100.00;99425.59;5023907;28;20087;-83
2021/12/07 08:54:32;;;;;;;53.55;21.85;;;;;;;0.98;100.00;99420.28;5021453;28;20022;-84
2021/12/07 08:59:54;;;;;;;56.03;20.75;;;;;;;0.93;100.00;99429.97;5022086;28;20509;-83
2021/12/07 09:02:24;;;;;;;50.42;21.30;;;;;;;1.04;100.00;99431.66;5022153;28;20030;-84
2021/12/07 09:04:53;;;;;;;51.20;20.58;;;;;;;1.10;100.00;99435.16;5020728;28;20076;-84
2021/12/07 09:07:19;;;;;;;51.25;20.15;;;;;;;1.19;100.00;99428.09;5020601;28;20385;-84
2021/12/07 09:09:44;;;;;;;53.13;21.02;;;;;;;1.11;100.00;99428.13;5020205;28;20026;-84
2021/12/07 09:12:14;;;;;;;51.08;21.10;;;;;;;1.09;100.00;99432.50;5019512;28;20548;-83
2021/12/07 09:14:42;;;;;;;51.50;21.73;;;;;;;1.08;100.00;99425.53;5015299;28;20018;-83
2021/12/07 09:17:08;;;;;;;50.05;20.95;;;;;;;1.14;100.00;99428.09;5017886;28;20045;-84
2021/12/07 09:19:34;;;;;;;57.70;20.90;;;;;;;1.29;100.00;99426.31;5017925;28;20036;-84
2021/12/07 09:22:00;;;;;;;46.85;20.15;;;;;;;1.27;100.00;99431.56;5018388;28;20202;-84
2021/12/07 09:24:26;;;;;;;53.40;21.55;;;;;;;1.38;100.00;99439.38;5020080;28;20413;-84
2021/12/07 09:26:52;;;;;;;45.35;19.77;;;;;;;1.47;100.00;99442.84;5021410;28;20036;-84
2021/12/07 09:29:17;;;;;;;43.72;18.75;;;;;;;1.41;100.00;99449.03;5021618;28;20021;-84
2021/12/07 09:31:43;;;;;;;48.10;20.88;;;;;;;1.34;100.00;99438.53;5021168;28;20125;-84
2021/12/07 09:34:15;;;;;;;41.78;19.75;;;;;;;1.41;100.00;99439.38;5021079;28;20021;-84
2021/12/07 09:36:47;;;;;;;49.85;18.58;;;;;;;1.41;100.00;99439.38;5022021;28;20030;-85
2021/12/07 09:39:16;;;;;;;44.35;19.58;;;;;;;1.45;100.00;99440.22;5020953;28;20026;-84
2021/12/07 09:41:42;;;;;;;38.40;18.50;;;;;;;1.57;100.00;99434.03;5020940;28;20022;-84
2021/12/07 09:44:09;;;;;;;48.90;20.42;;;;;;;1.55;100.00;99426.13;5022414;28;20026;-85
2021/12/07 09:46:36;;;;;;;47.97;18.63;;;;;;;1.55;100.00;99430.50;5021218;28;20051;-83
2021/12/07 09:49:03;;;;;;;49.40;18.95;;;;;;;1.61;100.00;99425.22;5019259;28;20049;-84
2021/12/07 09:51:29;;;;;;;45.28;19.85;;;;;;;1.64;100.00;99430.47;5015215;28;20026;-85
2021/12/07 09:53:57;;;;;;;43.83;18.95;;;;;;;1.68;100.00;99420.75;5018132;28;20028;-85
2021/12/07 09:56:23;;;;;;;42.47;18.98;;;;;;;1.70;100.00;99413.72;5019366;28;20033;-84
2021/12/07 09:58:50;;;;;;;48.83;18.00;;;;;;;1.67;100.00;99409.38;5018627;28;20445;-84
2021/12/07 10:01:19;;;;;;;40.08;18.25;;;;;;;1.60;100.00;99418.19;5021141;28;20022;-83
2021/12/07 10:03:45;;;;;;;40.80;19.02;;;;;;;1.60;100.00;99443.66;5021163;28;20046;-84
2021/12/07 10:06:10;;;;;;;43.22;18.33;;;;;;;1.65;100.00;99418.19;5021764;28;20426;-85
2021/12/07 10:08:37;;;;;;;38.88;17.65;;;;;;;1.64;100.00;99419.94;5022121;28;20026;-84
2021/12/07 10:11:05;;;;;;;41.40;18.48;;;;;;;1.69;100.00;99417.25;5021472;28;20026;-84
2021/12/07 10:14:01;;;;;;;44.10;17.35;;;;;;;1.73;100.00;99424.22;5021571;28;20030;-84
2021/12/07 10:16:28;;;;;;;45.47;18.10;;;;;;;1.82;100.00;99423.31;4986200;28;20026;-84
2021/12/07 10:18:54;;;;;;;38.35;18.50;;;;;;;1.78;100.00;99417.19;5020957;28;20093;-84
2021/12/07 10:21:38;;;;;;;38.90;17.25;;;;;;;2.00;100.00;99419.66;5020590;28;20064;-84
2021/12/07 10:24:09;;;;;;;42.38;16.55;;;;;;;2.03;100.00;99408.22;5019573;28;20420;-85
2021/12/07 10:26:41;;;;;;;44.03;16.65;;;;;;;1.98;100.00;99412.66;5016898;28;20513;-83
2021/12/07 10:29:16;;;;;;;36.33;15.25;;;;;;;2.03;100.00;99431.91;5026435;28;20029;-84
2021/12/07 10:31:51;;;;;;;34.53;14.75;;;;;;;2.04;100.00;99438.03;5027731;28;20018;-84
2021/12/07 10:34:20;;;;;;;40.78;15.88;;;;;;;2.09;100.00;99436.22;5028490;28;20077;-85
2021/12/07 10:36:56;;;;;;;41.63;17.00;;;;;;;2.06;100.00;99447.66;5028271;28;20474;-83
2021/12/07 10:39:24;;;;;;;39.35;17.05;;;;;;;2.05;100.00;99466.13;5027338;28;20037;-84
2021/12/07 10:41:56;;;;;;;31.92;14.73;;;;;;;1.98;100.00;99465.31;5028289;28;20048;-85
2021/12/07 10:44:27;;;;;;;36.17;15.52;;;;;;;1.90;100.00;99446.94;5028656;28;20026;-84
2021/12/07 10:47:01;;;;;;;40.80;16.25;;;;;;;1.88;100.00;99444.28;5028653;28;20437;-85
2021/12/07 10:49:32;;;;;;;41.42;16.60;;;;;;;1.86;100.00;99451.34;5027464;28;20041;-84
2021/12/07 10:52:13;;;;;;;44.47;18.33;;;;;;;1.91;100.00;99447.81;5027706;28;20391;-83
2021/12/07 10:55:13;;;;;;;43.45;18.02;;;;;;;1.91;100.00;99443.41;5029558;28;20033;-84
2021/12/07 10:57:50;;;;;;;45.53;17.77;;;;;;;1.93;100.00;99443.41;5008113;28;20034;-84
2021/12/07 11:00:44;;;;;;;44.22;19.05;;;;;;;1.83;100.00;99442.63;5026433;28;20394;-83
2021/12/07 11:03:17;;;;;;;45.00;18.90;;;;;;;1.77;100.00;99440.88;5017142;28;20402;-83
2021/12/07 11:05:54;;;;;;;45.90;19.63;;;;;;;1.88;100.00;99446.94;5020213;28;20055;-84
2021/12/07 11:08:23;;;;;;;49.28;21.65;;;;;;;1.86;100.00;99432.91;5021903;28;20022;-83
2021/12/07 11:10:50;;;;;;;59.53;24.17;;;;;;;2.02;100.00;99435.41;5020371;28;20033;-83
2021/12/07 11:13:23;;;;;;;56.30;21.77;;;;;;;1.99;100.00;99448.59;5019081;28;20041;-84
2021/12/07 11:15:54;;;;;;;54.47;20.98;;;;;;;2.07;100.00;99438.88;5021936;28;20045;-83
2021/12/07 11:18:27;;;;;;;53.78;22.73;;;;;;;2.10;100.00;99444.13;5022367;28;20040;-83
2021/12/07 11:20:54;;;;;;;52.10;21.88;;;;;;;2.15;100.00;99446.72;5024054;28;20094;-83
2021/12/07 11:23:33;;;;;;;56.50;21.58;;;;;;;2.08;100.00;99440.66;5023988;28;20049;-82
2021/12/07 11:31:19;;;;;;;49.15;21.20;;;;;;;2.22;100.00;99452.81;5026135;28;20084;-83
2021/12/07 11:33:55;;;;;;;48.40;22.77;;;;;;;2.28;100.00;99462.41;5024973;28;20540;-83
2021/12/07 11:36:41;;;;;;;51.63;22.13;;;;;;;2.30;100.00;99466.78;5024970;28;20061;-83
2021/12/07 11:39:31;;;;;;;51.97;22.08;;;;;;;2.18;100.00;99474.81;5016651;28;20033;-83
2021/12/07 11:42:05;;;;;;;48.47;22.02;;;;;;;2.20;100.00;99454.56;5018765;28;20068;-83
2021/12/07 11:44:31;;;;;;;;;;;;;;;2.21;100.00;99472.16;5020248;28;20037;-84
2021/12/07 11:47:08;;;;;;;54.17;21.67;;;;;;;2.23;100.00;99465.09;5022235;28;20263;-84
2021/12/07 11:49:34;;;;;;;53.33;23.00;;;;;;;2.27;100.00;99461.53;5021460;28;20030;-84
2021/12/07 11:52:02;;;;;;;50.38;21.50;;;;;;;2.28;100.00;99462.41;5022327;28;20030;-84
2021/12/07 11:54:33;;;;;;;51.40;21.48;;;;;;;2.30;100.00;99458.88;5020582;28;20026;-83
2021/12/07 11:57:00;;;;;;;43.40;19.83;;;;;;;2.43;100.00;99456.13;5024584;28;20090;-84
2021/12/07 11:59:26;;;;;;;43.95;18.20;;;;;;;2.29;100.00;99449.25;5023742;28;20501;-83
2021/12/07 12:01:52;;;;;;;44.10;20.15;;;;;;;2.29;100.00;99449.25;5024613;28;20041;-85
2021/12/07 12:04:19;;;;;;;43.58;18.75;;;;;;;2.47;100.00;99443.81;5023433;28;20437;-84
2021/12/07 12:06:50;;;;;;;46.75;20.45;;;;;;;2.50;100.00;99442.00;5025471;28;20022;-85
2021/12/07 12:09:16;;;;;;;37.22;18.40;;;;;;;2.44;100.00;99444.69;5025917;28;20509;-85
2021/12/07 12:12:09;;;;;;;42.58;17.25;;;;;;;2.47;100.00;99443.81;5024996;28;20029;-84
2021/12/07 12:14:49;;;;;;;39.00;17.65;;;;;;;2.53;100.00;99438.44;5020388;28;20026;-85
2021/12/07 12:17:40;;;;;;;38.05;17.27;;;;;;;2.54;100.00;99442.84;5017828;28;20021;-84
2021/12/07 12:20:32;;;;;;;37.08;17.38;;;;;;;2.54;100.00;99432.31;5021320;28;20033;-84
2021/12/07 12:23:14;;;;;;;35.35;17.73;;;;;;;2.61;100.00;99419.91;5011483;28;20063;-84
2021/12/07 12:25:39;;;;;;;49.83;19.80;;;;;;;2.66;100.00;99413.72;5020945;28;20028;-85
2021/12/07 12:28:04;;;;;;;49.58;20.33;;;;;;;2.64;100.00;99414.63;5020952;28;20029;-84
2021/12/07 12:30:48;;;;;;;42.30;19.80;;;;;;;2.68;100.00;99418.97;5021088;28;20072;-84
2021/12/07 12:33:14;;;;;;;43.65;22.48;;;;;;;2.73;100.00;99422.41;5022219;28;20079;-84
2021/12/07 12:35:49;;;;;;;59.47;23.30;;;;;;;2.77;100.00;99417.97;5024388;28;20513;-84
2021/12/07 12:38:31;;;;;;;56.63;24.55;;;;;;;2.73;100.00;99419.78;5025956;28;20033;-86
2021/12/07 12:40:58;;;;;;;56.67;25.83;;;;;;;2.85;100.00;99417.91;5026608;28;20375;-85
2021/12/07 12:43:34;;;;;;;61.63;26.45;;;;;;;2.82;100.00;99415.28;5026372;28;20028;-84
2021/12/07 12:46:03;;;;;;;54.80;26.60;;;;;;;2.78;100.00;99415.31;5026371;28;20022;-85
2021/12/07 12:48:28;;;;;;;64.78;27.58;;;;;;;2.79;100.00;99422.34;5027795;28;20034;-84
2021/12/07 12:50:55;;;;;;;68.45;28.40;;;;;;;2.84;100.00;99418.78;5023084;28;20036;-84
2021/12/07 12:53:27;;;;;;;60.72;28.35;;;;;;;2.90;100.00;99421.34;5015933;28;20524;-84
2021/12/07 12:56:00;;;;;;;63.50;29.55;;;;;;;2.94;100.00;99420.41;5017942;28;20112;-84
2021/12/07 12:58:29;;;;;;;73.38;32.03;;;;;;;2.97;100.00;99415.09;5020826;28;20076;-84
2021/12/07 13:01:18;;;;;;;71.90;31.70;;;;;;;2.99;100.00;99415.94;5020122;28;20130;-85
2021/12/07 13:03:51;;;;;;;70.15;29.90;;;;;;;3.02;100.00;99422.94;5020193;28;20073;-85
2021/12/07 13:06:24;;;;;;;70.60;32.67;;;;;;;2.95;100.00;99411.63;5021775;28;20094;-85
2021/12/07 13:09:07;;;;;;;76.83;33.57;;;;;;;2.93;100.00;99413.41;5023256;28;20133;-84
2021/12/07 13:11:37;;;;;;;75.13;32.47;;;;;;;2.88;100.00;99416.09;5022372;28;20267;-86
2021/12/07 13:14:29;;;;;;;69.47;30.65;;;;;;;2.90;100.00;99418.72;5025933;28;20025;-85
2021/12/07 13:17:01;;;;;;;63.55;29.45;;;;;;;2.93;100.00;99407.25;5026592;28;20033;-84
2021/12/07 13:19:28;;;;;;;60.55;27.23;;;;;;;2.89;100.00;99411.69;5024672;28;20025;-85
2021/12/07 13:22:04;;;;;;;70.40;28.35;;;;;;;2.87;100.00;99406.44;5025431;28;20029;-85
2021/12/07 13:24:31;;;;;;;63.72;26.73;;;;;;;2.89;100.00;99404.66;5024293;28;20018;-84
2021/12/07 13:26:57;;;;;;;60.47;26.95;;;;;;;2.93;100.00;99410.75;5023998;28;20018;-85
2021/12/07 13:29:25;;;;;;;54.30;25.70;;;;;;;2.93;100.00;99412.53;5015374;28;20544;-84
2021/12/07 13:31:54;;;;;;;60.60;26.08;;;;;;;2.90;100.00;99418.72;5016417;28;20025;-84
2021/12/07 13:34:31;;;;;;;57.47;27.08;;;;;;;2.88;100.00;99413.47;5018831;28;20022;-84